createdAt,value
2022-07-25T00:01:20.694Z,22.47
2022-07-25T00:03:48.736Z,22.56
2022-07-25T00:06:17.768Z,22.62
2022-07-25T00:08:46.054Z,22.53
2022-07-25T00:11:15.248Z,22.54
2022-07-25T00:13:43.061Z,22.51
2022-07-25T00:16:11.271Z,22.41
2022-07-25T00:18:39.211Z,22.35
2022-07-25T00:21:07.373Z,22.39
2022-07-25T00:23:35.266Z,22.40
2022-07-25T00:26:03.064Z,22.37
2022-07-25T00:28:32.245Z,22.40
2022-07-25T00:31:00.167Z,22.37
2022-07-25T00:33:28.183Z,22.41
2022-07-25T00:35:56.051Z,22.40
2022-07-25T00:38:23.958Z,22.35
2022-07-25T00:40:54.344Z,22.42
2022-07-25T00:43:23.752Z,22.30
2022-07-25T00:45:52.994Z,22.17
2022-07-25T00:48:21.143Z,22.15
2022-07-25T00:50:49.219Z,22.16
2022-07-25T00:53:17.314Z,22.01
2022-07-25T00:55:45.212Z,22.04
2022-07-25T00:58:13.768Z,22.06
2022-07-25T01:00:41.741Z,22.10
2022-07-25T01:03:11.100Z,22.08
2022-07-25T01:05:39.166Z,22.10
2022-07-25T01:08:07.400Z,22.06
2022-07-25T01:10:36.133Z,21.94
2022-07-25T01:13:04.082Z,21.67
2022-07-25T01:15:32.219Z,21.43
2022-07-25T01:18:00.149Z,21.31
2022-07-25T01:20:31.902Z,21.17
2022-07-25T01:23:01.279Z,21.23
2022-07-25T01:25:29.624Z,21.30
2022-07-25T01:27:57.851Z,21.41
2022-07-25T01:30:26.360Z,21.49
2022-07-25T01:32:54.491Z,21.29
2022-07-25T01:35:22.338Z,21.25
2022-07-25T01:37:51.534Z,21.12
2022-07-25T01:40:19.396Z,20.85
2022-07-25T01:42:47.475Z,20.79
2022-07-25T01:45:15.615Z,20.69
2022-07-25T01:47:43.478Z,20.67
2022-07-25T01:50:11.718Z,20.75
2022-07-25T01:52:40.412Z,20.94
2022-07-25T01:55:10.628Z,20.85
2022-07-25T01:57:39.286Z,20.79
2022-07-25T02:00:11.854Z,20.67
2022-07-25T02:02:39.682Z,20.59
2022-07-25T02:05:08.321Z,20.27
2022-07-25T02:07:36.242Z,19.96
2022-07-25T02:10:05.832Z,19.82
2022-07-25T02:12:35.202Z,19.91
2022-07-25T02:15:03.123Z,20.03
2022-07-25T02:17:31.151Z,20.07
2022-07-25T02:19:59.067Z,20.27
2022-07-25T02:22:26.856Z,20.32
2022-07-25T02:24:54.674Z,20.27
2022-07-25T02:27:22.539Z,20.22
2022-07-25T02:29:51.791Z,20.15
2022-07-25T02:32:19.781Z,20.07
2022-07-25T02:34:47.631Z,20.14
2022-07-25T02:37:16.536Z,20.09
2022-07-25T02:39:44.362Z,19.97
2022-07-25T02:42:12.237Z,19.98
2022-07-25T02:44:40.066Z,20.03
2022-07-25T02:47:09.279Z,20.17
2022-07-25T02:49:37.180Z,20.18
2022-07-25T02:52:05.528Z,20.14
2022-07-25T02:54:33.412Z,19.95
2022-07-25T02:57:01.226Z,19.86
2022-07-25T02:59:32.422Z,19.94
2022-07-25T03:02:00.759Z,19.72
2022-07-25T03:04:31.115Z,19.41
2022-07-25T03:06:59.020Z,19.56
2022-07-25T03:09:26.804Z,19.72
2022-07-25T03:11:54.664Z,19.72
2022-07-25T03:14:22.539Z,19.70
2022-07-25T03:16:51.551Z,19.71
2022-07-25T03:19:19.455Z,19.72
2022-07-25T03:21:48.637Z,19.67
2022-07-25T03:24:16.538Z,19.66
2022-07-25T03:26:45.488Z,19.62
2022-07-25T03:29:13.375Z,19.54
2022-07-25T03:31:41.307Z,19.60
2022-07-25T03:34:09.521Z,19.57
2022-07-25T03:36:37.627Z,19.57
2022-07-25T03:39:06.838Z,19.48
2022-07-25T03:41:34.818Z,19.57
2022-07-25T03:44:02.971Z,19.54
2022-07-25T03:46:31.135Z,19.58
2022-07-25T03:48:59.090Z,19.72
2022-07-25T03:51:27.111Z,19.78
2022-07-25T03:54:04.495Z,19.85
2022-07-25T03:56:41.538Z,19.88
2022-07-25T03:59:13.702Z,19.74
2022-07-25T04:01:42.213Z,19.67
2022-07-25T04:04:10.906Z,19.65
2022-07-25T04:06:39.553Z,19.63
2022-07-25T04:09:08.733Z,19.68
2022-07-25T04:11:38.414Z,19.81
2022-07-25T04:14:07.100Z,19.67
2022-07-25T04:16:35.977Z,19.55
2022-07-25T04:19:06.232Z,19.54
2022-07-25T04:21:34.538Z,19.65
2022-07-25T04:24:02.632Z,19.57
2022-07-25T04:26:30.654Z,19.66
2022-07-25T04:29:03.298Z,19.63
2022-07-25T04:31:31.587Z,19.61
2022-07-25T04:33:59.911Z,19.82
2022-07-25T04:36:27.821Z,19.85
2022-07-25T04:38:55.653Z,19.80
2022-07-25T04:41:23.516Z,19.97
2022-07-25T04:43:51.380Z,20.09
2022-07-25T04:46:21.501Z,20.09
2022-07-25T04:48:49.971Z,20.23
2022-07-25T04:51:18.024Z,20.27
2022-07-25T04:53:45.991Z,20.27
2022-07-25T04:56:14.109Z,20.45
2022-07-25T04:58:41.964Z,20.51
2022-07-25T05:01:09.935Z,20.54
2022-07-25T05:03:39.285Z,20.62
2022-07-25T05:06:07.789Z,20.74
2022-07-25T05:08:35.602Z,20.92
2022-07-25T05:11:03.416Z,20.96
2022-07-25T05:13:31.293Z,21.14
2022-07-25T05:15:59.202Z,21.14
2022-07-25T05:18:27.076Z,21.24
2022-07-25T05:20:56.490Z,21.31
2022-07-25T05:23:24.285Z,21.27
2022-07-25T05:25:52.140Z,21.31
2022-07-25T05:28:19.918Z,21.37
2022-07-25T05:30:47.715Z,21.45
2022-07-25T05:33:15.610Z,21.58
2022-07-25T05:35:43.603Z,21.75
2022-07-25T05:38:12.805Z,21.83
2022-07-25T05:40:40.692Z,21.88
2022-07-25T05:43:08.926Z,21.97
2022-07-25T05:45:36.751Z,22.08
2022-07-25T05:48:04.751Z,22.06
2022-07-25T05:50:32.625Z,22.23
2022-07-25T05:53:00.467Z,22.30
2022-07-25T05:55:29.787Z,22.34
2022-07-25T05:57:58.731Z,22.48
2022-07-25T06:00:26.969Z,22.58
2022-07-25T06:02:54.947Z,22.72
2022-07-25T06:05:23.115Z,22.87
2022-07-25T06:07:50.952Z,22.97
2022-07-25T06:10:19.008Z,23.08
2022-07-25T06:12:48.240Z,23.18
2022-07-25T06:15:23.074Z,23.34
2022-07-25T06:17:55.137Z,23.50
2022-07-25T06:20:23.127Z,23.61
2022-07-25T06:22:51.206Z,23.68
2022-07-25T06:25:19.025Z,23.82
2022-07-25T06:27:50.486Z,23.69
2022-07-25T06:30:20.618Z,24.13
2022-07-25T06:32:48.904Z,24.17
2022-07-25T06:35:17.387Z,24.21
2022-07-25T06:37:45.230Z,24.37
2022-07-25T06:40:13.742Z,24.50
2022-07-25T06:42:42.969Z,24.72
2022-07-25T06:45:12.505Z,24.91
2022-07-25T06:47:43.582Z,25.04
2022-07-25T06:50:15.580Z,25.12
2022-07-25T06:52:43.715Z,25.27
2022-07-25T06:55:12.982Z,25.35
2022-07-25T06:57:42.419Z,25.43
2022-07-25T07:00:12.973Z,25.48
2022-07-25T07:02:52.172Z,25.57
2022-07-25T07:05:20.421Z,25.71
2022-07-25T07:07:48.448Z,25.77
2022-07-25T07:10:16.919Z,25.81
2022-07-25T07:12:45.317Z,25.87
2022-07-25T07:15:13.682Z,25.93
2022-07-25T07:17:41.841Z,25.99
2022-07-25T07:20:11.960Z,26.03
2022-07-25T07:22:46.423Z,26.20
2022-07-25T07:25:15.822Z,26.36
2022-07-25T07:27:44.445Z,26.49
2022-07-25T07:30:14.791Z,26.64
2022-07-25T07:32:42.825Z,26.62
2022-07-25T07:35:13.062Z,26.78
2022-07-25T07:37:43.575Z,26.88
2022-07-25T07:40:17.694Z,26.96
2022-07-25T07:42:48.424Z,26.83
2022-07-25T07:45:17.868Z,27.02
2022-07-25T07:47:47.994Z,27.17
2022-07-25T07:50:19.397Z,27.30
2022-07-25T07:52:47.779Z,27.39
2022-07-25T07:55:33.870Z,27.41
2022-07-25T07:58:02.508Z,27.43
2022-07-25T08:00:31.972Z,27.70
2022-07-25T08:03:00.563Z,27.73
2022-07-25T08:05:32.364Z,27.70
2022-07-25T08:08:01.426Z,27.90
2022-07-25T08:10:31.212Z,28.03
2022-07-25T08:13:00.080Z,28.03
2022-07-25T08:15:28.251Z,28.15
2022-07-25T08:17:56.509Z,28.25
2022-07-25T08:20:39.677Z,28.26
2022-07-25T08:23:11.084Z,28.28
2022-07-25T08:25:39.276Z,28.49
2022-07-25T08:28:07.430Z,28.64
2022-07-25T08:30:37.772Z,28.73
2022-07-25T08:33:09.706Z,28.83
2022-07-25T08:35:38.575Z,28.79
2022-07-25T08:38:06.808Z,28.87
2022-07-25T08:40:36.190Z,29.04
2022-07-25T08:43:05.646Z,29.17
2022-07-25T08:45:34.069Z,29.28
2022-07-25T08:48:01.940Z,29.52
2022-07-25T08:50:31.017Z,29.42
2022-07-25T08:53:31.022Z,29.36
2022-07-25T08:55:48.306Z,29.51
2022-07-25T08:58:17.432Z,29.74
2022-07-25T09:00:45.733Z,29.86
2022-07-25T09:03:13.867Z,29.83
2022-07-25T09:05:42.429Z,29.96
2022-07-25T09:08:12.064Z,29.89
2022-07-25T09:10:42.364Z,29.91
2022-07-25T09:13:14.909Z,29.84
2022-07-25T09:15:46.400Z,29.95
2022-07-25T09:18:17.117Z,30.17
2022-07-25T09:20:48.162Z,30.16
2022-07-25T09:23:28.148Z,30.24
2022-07-25T09:26:04.532Z,30.25
2022-07-25T09:28:33.971Z,30.56
2022-07-25T09:31:03.095Z,30.30
2022-07-25T09:33:31.312Z,30.37
2022-07-25T09:35:59.389Z,30.54
2022-07-25T09:38:27.975Z,30.64
2022-07-25T09:40:58.173Z,30.74
2022-07-25T09:43:37.989Z,31.13
2022-07-25T09:46:06.886Z,31.20
2022-07-25T09:48:35.394Z,31.09
2022-07-25T09:51:03.509Z,31.15
2022-07-25T09:53:31.495Z,31.31
2022-07-25T09:55:59.461Z,31.22
2022-07-25T09:58:28.051Z,31.22
2022-07-25T10:01:01.929Z,31.39
2022-07-25T10:03:43.421Z,31.63
2022-07-25T10:06:20.680Z,31.63
2022-07-25T10:08:50.047Z,31.57
2022-07-25T10:11:22.793Z,31.74
2022-07-25T10:13:51.015Z,31.65
2022-07-25T10:16:21.477Z,31.78
2022-07-25T10:18:51.447Z,32.02
2022-07-25T10:21:26.936Z,31.91
2022-07-25T10:24:00.772Z,31.94
2022-07-25T10:26:28.715Z,31.95
2022-07-25T10:28:57.126Z,31.86
2022-07-25T10:31:34.871Z,32.02
2022-07-25T10:34:06.357Z,32.02
2022-07-25T10:36:46.159Z,32.41
2022-07-25T10:39:15.897Z,32.66
2022-07-25T10:41:46.352Z,32.44
2022-07-25T10:44:16.225Z,32.50
2022-07-25T10:46:46.145Z,32.76
2022-07-25T10:49:21.807Z,32.83
2022-07-25T10:51:57.616Z,32.91
2022-07-25T10:54:26.146Z,33.06
2022-07-25T10:56:58.676Z,32.90
2022-07-25T10:59:31.574Z,32.90
2022-07-25T11:02:01.600Z,33.09
2022-07-25T11:04:30.136Z,33.13
2022-07-25T11:06:58.462Z,33.05
2022-07-25T11:09:28.476Z,32.87
2022-07-25T11:11:58.638Z,33.00
2022-07-25T11:14:31.221Z,33.27
2022-07-25T11:17:13.199Z,33.38
2022-07-25T11:19:41.972Z,33.67
2022-07-25T11:22:10.794Z,33.70
2022-07-25T11:24:40.706Z,33.50
2022-07-25T11:27:12.754Z,33.23
2022-07-25T11:29:41.734Z,33.40
2022-07-25T11:32:12.718Z,33.28
2022-07-25T11:34:43.756Z,33.67
2022-07-25T11:37:14.416Z,33.89
2022-07-25T11:39:44.657Z,34.01
2022-07-25T11:42:16.316Z,33.59
2022-07-25T11:44:48.029Z,33.52
2022-07-25T11:47:28.586Z,33.59
2022-07-25T11:49:58.355Z,33.64
2022-07-25T11:52:29.738Z,33.58
2022-07-25T11:54:59.116Z,33.85
2022-07-25T11:57:28.995Z,33.98
2022-07-25T11:59:57.460Z,33.63
2022-07-25T12:02:30.894Z,33.90
2022-07-25T12:05:01.412Z,34.06
2022-07-25T12:07:47.820Z,34.19
2022-07-25T12:10:17.558Z,34.29
2022-07-25T12:12:48.599Z,34.15
2022-07-25T12:15:19.029Z,34.07
2022-07-25T12:17:48.458Z,34.18
2022-07-25T12:20:17.490Z,34.39
2022-07-25T12:22:46.163Z,34.38
2022-07-25T12:25:14.136Z,34.86
2022-07-25T12:27:42.929Z,35.24
2022-07-25T12:30:12.427Z,34.64
2022-07-25T12:32:40.329Z,34.61
2022-07-25T12:35:11.559Z,34.50
2022-07-25T12:37:41.313Z,34.27
2022-07-25T12:40:10.341Z,34.37
2022-07-25T12:42:38.159Z,34.41
2022-07-25T12:45:07.716Z,34.67
2022-07-25T12:47:36.038Z,34.42
2022-07-25T12:50:05.239Z,34.60
2022-07-25T12:52:34.805Z,34.65
2022-07-25T12:55:03.097Z,34.58
2022-07-25T12:57:30.942Z,34.76
2022-07-25T12:59:58.902Z,34.70
2022-07-25T13:02:26.864Z,34.92
2022-07-25T13:04:54.727Z,35.02
2022-07-25T13:07:22.667Z,34.96
2022-07-25T13:09:51.965Z,35.08
2022-07-25T13:12:19.752Z,34.75
2022-07-25T13:14:47.869Z,34.39
2022-07-25T13:17:15.745Z,34.11
2022-07-25T13:19:43.585Z,34.21
2022-07-25T13:22:11.519Z,34.70
2022-07-25T13:24:40.352Z,34.54
2022-07-25T13:27:09.743Z,34.37
2022-07-25T13:29:37.660Z,34.40
2022-07-25T13:32:06.512Z,34.40
2022-07-25T13:34:34.417Z,34.56
2022-07-25T13:37:02.318Z,34.71
2022-07-25T13:39:30.129Z,34.93
2022-07-25T13:41:58.005Z,34.62
2022-07-25T13:44:27.213Z,34.47
2022-07-25T13:46:55.093Z,34.35
2022-07-25T13:49:22.987Z,34.47
2022-07-25T13:51:50.953Z,34.80
2022-07-25T13:54:18.845Z,34.83
2022-07-25T13:56:47.447Z,34.77
2022-07-25T13:59:20.943Z,34.78
2022-07-25T14:01:50.897Z,35.19
2022-07-25T14:04:19.627Z,35.52
2022-07-25T14:06:51.754Z,35.19
2022-07-25T14:09:20.699Z,34.97
2022-07-25T14:11:49.216Z,35.23
2022-07-25T14:14:17.129Z,35.14
2022-07-25T14:16:45.371Z,35.38
2022-07-25T14:19:14.611Z,35.56
2022-07-25T14:21:42.557Z,35.25
2022-07-25T14:24:10.421Z,35.12
2022-07-25T14:26:38.286Z,35.34
2022-07-25T14:29:11.098Z,35.49
2022-07-25T14:31:40.580Z,35.42
2022-07-25T14:34:08.777Z,35.14
2022-07-25T14:36:37.988Z,35.47
2022-07-25T14:39:06.638Z,35.15
2022-07-25T14:41:35.249Z,35.10
2022-07-25T14:44:03.067Z,35.44
2022-07-25T14:46:31.098Z,35.46
2022-07-25T14:48:59.464Z,35.52
2022-07-25T14:51:28.517Z,35.47
2022-07-25T14:53:57.751Z,35.38
2022-07-25T14:56:25.940Z,35.08
2022-07-25T14:58:53.776Z,35.42
2022-07-25T15:01:24.391Z,35.23
2022-07-25T15:03:52.576Z,35.11
2022-07-25T15:06:21.248Z,35.20
2022-07-25T15:08:51.859Z,35.12
2022-07-25T15:11:21.737Z,35.12
2022-07-25T15:13:50.283Z,35.08
2022-07-25T15:16:18.410Z,34.95
2022-07-25T15:19:13.498Z,35.23
2022-07-25T15:21:34.614Z,35.34
2022-07-25T15:24:02.688Z,35.35
2022-07-25T15:26:32.370Z,35.36
2022-07-25T15:29:00.287Z,35.52
2022-07-25T15:31:28.611Z,35.79
2022-07-25T15:33:56.506Z,35.85
2022-07-25T15:36:29.124Z,35.92
2022-07-25T15:38:57.516Z,35.72
2022-07-25T15:41:26.532Z,35.77
2022-07-25T15:43:55.717Z,35.93
2022-07-25T15:46:23.666Z,35.85
2022-07-25T15:48:51.627Z,35.95
2022-07-25T15:51:20.035Z,35.83
2022-07-25T15:53:47.866Z,35.84
2022-07-25T15:56:16.095Z,35.86
2022-07-25T15:58:44.409Z,35.66
2022-07-25T16:01:13.674Z,35.74
2022-07-25T16:03:41.634Z,35.64
2022-07-25T16:06:10.037Z,35.71
2022-07-25T16:08:38.329Z,36.08
2022-07-25T16:11:06.473Z,35.58
2022-07-25T16:13:34.393Z,35.57
2022-07-25T16:16:02.277Z,35.38
2022-07-25T16:18:32.310Z,35.15
2022-07-25T16:21:00.133Z,35.50
2022-07-25T16:23:28.207Z,35.88
2022-07-25T16:25:56.052Z,36.00
2022-07-25T16:28:23.901Z,35.61
2022-07-25T16:30:52.141Z,35.67
2022-07-25T16:33:20.124Z,35.49
2022-07-25T16:35:49.711Z,35.23
2022-07-25T16:38:18.050Z,35.37
2022-07-25T16:40:45.943Z,35.65
2022-07-25T16:43:13.851Z,35.86
2022-07-25T16:45:43.082Z,35.53
2022-07-25T16:48:11.023Z,35.30
2022-07-25T16:50:38.856Z,35.17
2022-07-25T16:53:08.281Z,35.20
2022-07-25T16:55:36.171Z,35.43
2022-07-25T16:58:04.063Z,35.19
2022-07-25T17:00:32.738Z,35.05
2022-07-25T17:03:02.092Z,35.01
2022-07-25T17:05:30.016Z,35.04
2022-07-25T17:07:59.621Z,35.45
2022-07-25T17:10:31.491Z,35.02
2022-07-25T17:13:00.368Z,35.02
2022-07-25T17:15:28.362Z,35.16
2022-07-25T17:17:56.297Z,35.25
2022-07-25T17:20:24.467Z,34.79
2022-07-25T17:22:52.324Z,34.81
2022-07-25T17:25:20.253Z,34.53
2022-07-25T17:27:49.448Z,34.12
2022-07-25T17:30:17.314Z,34.08
2022-07-25T17:32:45.332Z,34.30
2022-07-25T17:35:13.393Z,34.40
2022-07-25T17:37:41.513Z,34.40
2022-07-25T17:40:10.796Z,34.24
2022-07-25T17:42:44.602Z,34.08
2022-07-25T17:45:15.337Z,33.97
2022-07-25T17:47:44.087Z,33.70
2022-07-25T17:50:12.531Z,33.57
2022-07-25T17:52:40.587Z,33.59
2022-07-25T17:55:09.030Z,33.46
2022-07-25T17:57:37.641Z,33.29
2022-07-25T18:00:06.701Z,33.45
2022-07-25T18:02:41.016Z,33.36
2022-07-25T18:05:09.585Z,33.24
2022-07-25T18:07:40.668Z,33.05
2022-07-25T18:10:09.013Z,32.90
2022-07-25T18:12:39.359Z,32.70
2022-07-25T18:15:08.537Z,32.81
2022-07-25T18:17:36.526Z,32.89
2022-07-25T18:20:06.372Z,33.05
2022-07-25T18:22:34.672Z,32.91
2022-07-25T18:25:02.670Z,32.42
2022-07-25T18:27:30.618Z,31.98
2022-07-25T18:29:58.588Z,31.83
2022-07-25T18:32:26.470Z,31.80
2022-07-25T18:34:54.365Z,31.74
2022-07-25T18:37:23.614Z,31.59
2022-07-25T18:39:51.524Z,31.44
2022-07-25T18:42:19.480Z,31.29
2022-07-25T18:44:47.469Z,30.95
2022-07-25T18:47:15.531Z,30.79
2022-07-25T18:49:43.395Z,30.60
2022-07-25T18:52:11.299Z,30.57
2022-07-25T18:54:40.610Z,30.51
2022-07-25T18:57:08.608Z,30.48
2022-07-25T18:59:37.047Z,30.34
2022-07-25T19:02:05.344Z,30.17
2022-07-25T19:04:33.331Z,30.07
2022-07-25T19:07:01.327Z,29.96
2022-07-25T19:09:29.232Z,29.86
2022-07-25T19:11:58.476Z,29.79
2022-07-25T19:14:27.381Z,29.59
2022-07-25T19:16:57.468Z,29.65
2022-07-25T19:19:25.959Z,29.54
2022-07-25T19:21:54.486Z,29.41
2022-07-25T19:24:22.914Z,29.37
2022-07-25T19:26:50.909Z,29.30
2022-07-25T19:29:20.985Z,29.16
2022-07-25T19:31:48.891Z,29.14
2022-07-25T19:34:16.760Z,29.06
2022-07-25T19:36:45.975Z,28.99
2022-07-25T19:39:14.540Z,28.94
2022-07-25T19:41:46.642Z,28.86
2022-07-25T19:44:15.275Z,28.87
2022-07-25T19:46:44.863Z,28.85
2022-07-25T19:49:13.203Z,28.78
2022-07-25T19:51:41.404Z,28.74
2022-07-25T19:54:10.005Z,28.65
2022-07-25T19:56:38.312Z,28.63
2022-07-25T19:59:06.540Z,28.59
2022-07-25T20:01:35.916Z,28.56
2022-07-25T20:04:09.070Z,28.42
2022-07-25T20:06:37.370Z,28.32
2022-07-25T20:09:06.797Z,28.25
2022-07-25T20:11:34.903Z,27.98
2022-07-25T20:14:02.751Z,27.82
2022-07-25T20:16:30.891Z,27.72
2022-07-25T20:19:00.222Z,27.68
2022-07-25T20:21:29.612Z,27.53
2022-07-25T20:23:57.677Z,26.98
2022-07-25T20:26:25.608Z,26.25
2022-07-25T20:28:53.806Z,24.61
2022-07-25T20:31:24.308Z,23.77
2022-07-25T20:33:52.687Z,23.54
2022-07-25T20:36:21.232Z,23.50
2022-07-25T20:38:51.136Z,23.29
2022-07-25T20:41:19.602Z,22.85
2022-07-25T20:43:47.485Z,22.61
2022-07-25T20:46:15.361Z,22.41
2022-07-25T20:48:43.357Z,22.04
2022-07-25T20:51:12.924Z,21.81
2022-07-25T20:53:41.816Z,21.76
2022-07-25T20:56:11.127Z,21.60
2022-07-25T20:58:39.663Z,21.55
2022-07-25T21:01:07.532Z,21.80
2022-07-25T21:03:36.030Z,21.75
2022-07-25T21:06:03.908Z,21.73
2022-07-25T21:08:31.779Z,21.94
2022-07-25T21:11:00.839Z,22.05
2022-07-25T21:13:31.574Z,22.04
2022-07-25T21:16:00.980Z,22.05
2022-07-25T21:18:28.970Z,21.94
2022-07-25T21:20:56.838Z,21.75
2022-07-25T21:23:26.331Z,21.58
2022-07-25T21:25:54.223Z,21.52
2022-07-25T21:28:22.115Z,20.94
2022-07-25T21:30:51.457Z,20.46
2022-07-25T21:33:19.297Z,20.02
2022-07-25T21:35:51.807Z,19.81
2022-07-25T21:38:26.653Z,19.85
2022-07-25T21:40:56.383Z,19.93
2022-07-25T21:43:24.255Z,19.79
2022-07-25T21:45:53.933Z,19.79
2022-07-25T21:48:43.871Z,19.78
2022-07-25T21:51:19.211Z,19.65
2022-07-25T21:53:51.402Z,19.59
2022-07-25T21:56:19.909Z,19.52
2022-07-25T21:58:48.063Z,19.50
2022-07-25T22:01:17.646Z,19.65
2022-07-25T22:03:45.628Z,19.63
2022-07-25T22:06:13.603Z,19.67
2022-07-25T22:08:41.441Z,19.55
2022-07-25T22:11:16.082Z,19.44
2022-07-25T22:13:57.914Z,19.41
2022-07-25T22:16:27.985Z,19.62
2022-07-25T22:18:57.142Z,19.74
2022-07-25T22:21:25.121Z,19.70
2022-07-25T22:23:52.938Z,19.82
2022-07-25T22:26:20.918Z,19.89
2022-07-25T22:28:50.638Z,20.00
2022-07-25T22:31:18.952Z,19.83
2022-07-25T22:33:48.221Z,19.80
2022-07-25T22:36:16.044Z,19.72
2022-07-25T22:38:43.942Z,19.62
2022-07-25T22:41:12.568Z,19.51
2022-07-25T22:43:58.773Z,19.38
2022-07-25T22:46:28.458Z,19.43
2022-07-25T22:48:58.769Z,19.37
2022-07-25T22:51:27.455Z,19.42
2022-07-25T22:53:55.333Z,19.38
2022-07-25T22:56:23.498Z,19.29
2022-07-25T22:58:51.334Z,19.38
2022-07-25T23:01:19.491Z,19.24
2022-07-25T23:03:49.781Z,19.47
2022-07-25T23:06:20.689Z,19.30
2022-07-25T23:08:48.985Z,19.32
2022-07-25T23:11:17.261Z,19.27
2022-07-25T23:13:45.294Z,19.31
2022-07-25T23:16:13.366Z,19.40
2022-07-25T23:18:41.295Z,19.56
2022-07-25T23:21:09.256Z,19.63
2022-07-25T23:23:38.513Z,19.66
2022-07-25T23:26:06.356Z,19.43
2022-07-25T23:28:34.184Z,19.35
2022-07-25T23:31:02.031Z,19.17
2022-07-25T23:33:30.110Z,19.06
2022-07-25T23:35:58.211Z,19.00
2022-07-25T23:38:26.364Z,18.95
2022-07-25T23:40:55.616Z,19.15
2022-07-25T23:43:40.848Z,19.19
2022-07-25T23:46:11.588Z,19.16
2022-07-25T23:48:39.572Z,19.14
2022-07-25T23:51:07.784Z,19.23
2022-07-25T23:53:36.368Z,19.22
2022-07-25T23:56:06.126Z,19.27
2022-07-25T23:58:34.022Z,19.29
